sensor_id;sensor_type;location;lat;lon;timestamp;pressure;altitude;pressure_sealevel;temperature;humidity
76311;BME280;65120;59.304;18.294;2022-12-29T00:00:10;100213.78;;;2.70;76.80
76311;BME280;65120;59.304;18.294;2022-12-29T00:02:37;100206.91;;;2.69;76.46
76311;BME280;65120;59.304;18.294;2022-12-29T00:05:05;100213.78;;;2.70;76.32
76311;BME280;65120;59.304;18.294;2022-12-29T00:07:33;100214.66;;;2.70;76.54
76311;BME280;65120;59.304;18.294;2022-12-29T00:10:00;100212.06;;;2.69;76.59
76311;BME280;65120;59.304;18.294;2022-12-29T00:12:27;100215.53;;;2.71;76.83
76311;BME280;65120;59.304;18.294;2022-12-29T00:15:15;100218.09;;;2.71;76.56
76311;BME280;65120;59.304;18.294;2022-12-29T00:17:59;100217.25;;;2.70;76.55
76311;BME280;65120;59.304;18.294;2022-12-29T00:20:26;100214.66;;;2.70;76.39
76311;BME280;65120;59.304;18.294;2022-12-29T00:23:11;100218.94;;;2.70;76.28
76311;BME280;65120;59.304;18.294;2022-12-29T00:25:55;100226.69;;;2.70;76.67
76311;BME280;65120;59.304;18.294;2022-12-29T00:28:39;100218.94;;;2.70;76.94
76311;BME280;65120;59.304;18.294;2022-12-29T00:31:23;100210.34;;;2.66;76.62
76311;BME280;65120;59.304;18.294;2022-12-29T00:34:10;100209.50;;;2.69;76.62
76311;BME280;65120;59.304;18.294;2022-12-29T00:36:54;100203.47;;;2.68;76.44
76311;BME280;65120;59.304;18.294;2022-12-29T00:39:23;100204.34;;;2.69;76.29
76311;BME280;65120;59.304;18.294;2022-12-29T00:42:08;100204.34;;;2.69;76.10
76311;BME280;65120;59.304;18.294;2022-12-29T00:44:53;100209.50;;;2.69;76.55
76311;BME280;65120;59.304;18.294;2022-12-29T00:47:20;100207.78;;;2.68;76.56
76311;BME280;65120;59.304;18.294;2022-12-29T00:49:47;100198.31;;;2.68;76.09
76311;BME280;65120;59.304;18.294;2022-12-29T00:52:13;100181.91;;;2.56;75.87
76311;BME280;65120;59.304;18.294;2022-12-29T00:54:41;100199.19;;;2.69;76.52
76311;BME280;65120;59.304;18.294;2022-12-29T00:57:11;100204.34;;;2.69;76.32
76311;BME280;65120;59.304;18.294;2022-12-29T00:59:40;100199.19;;;2.69;76.45
76311;BME280;65120;59.304;18.294;2022-12-29T01:02:07;100199.19;;;2.69;75.83
76311;BME280;65120;59.304;18.294;2022-12-29T01:04:35;100191.41;;;2.67;75.92
76311;BME280;65120;59.304;18.294;2022-12-29T01:07:02;100194.00;;;2.67;76.49
76311;BME280;65120;59.304;18.294;2022-12-29T01:09:29;100187.13;;;2.66;75.83
76311;BME280;65120;59.304;18.294;2022-12-29T01:12:14;100188.00;;;2.67;76.22
76311;BME280;65120;59.304;18.294;2022-12-29T01:14:41;100193.16;;;2.67;76.31
76311;BME280;65120;59.304;18.294;2022-12-29T01:17:08;100182.81;;;2.67;76.22
76311;BME280;65120;59.304;18.294;2022-12-29T01:19:35;100177.66;;;2.67;76.28
76311;BME280;65120;59.304;18.294;2022-12-29T01:22:02;100179.41;;;2.68;75.75
76311;BME280;65120;59.304;18.294;2022-12-29T01:24:29;100193.16;;;2.67;76.09
76311;BME280;65120;59.304;18.294;2022-12-29T01:26:56;100180.25;;;2.67;76.09
76311;BME280;65120;59.304;18.294;2022-12-29T01:29:24;100175.97;;;2.66;75.60
76311;BME280;65120;59.304;18.294;2022-12-29T01:31:51;100180.25;;;2.67;76.35
76311;BME280;65120;59.304;18.294;2022-12-29T01:34:18;100185.41;;;2.65;75.68
76311;BME280;65120;59.304;18.294;2022-12-29T01:36:45;100180.25;;;2.65;76.15
76311;BME280;65120;59.304;18.294;2022-12-29T01:39:11;100164.78;;;2.64;75.77
76311;BME280;65120;59.304;18.294;2022-12-29T01:41:38;100166.50;;;2.65;76.21
76311;BME280;65120;59.304;18.294;2022-12-29T01:47:08;100155.31;;;2.64;76.32
76311;BME280;65120;59.304;18.294;2022-12-29T01:49:35;100151.03;;;2.63;75.76
76311;BME280;65120;59.304;18.294;2022-12-29T01:52:05;100145.84;;;2.63;75.81
76311;BME280;65120;59.304;18.294;2022-12-29T01:54:38;100154.44;;;2.64;75.74
76311;BME280;65120;59.304;18.294;2022-12-29T01:57:09;100150.16;;;2.63;76.30
76311;BME280;65120;59.304;18.294;2022-12-29T01:59:39;100142.41;;;2.64;75.88
76311;BME280;65120;59.304;18.294;2022-12-29T02:02:09;100146.72;;;2.64;75.82
76311;BME280;65120;59.304;18.294;2022-12-29T02:04:40;100141.56;;;2.64;75.74
76311;BME280;65120;59.304;18.294;2022-12-29T02:07:13;100147.56;;;2.64;75.85
76311;BME280;65120;59.304;18.294;2022-12-29T02:09:42;100133.84;;;2.62;76.25
76311;BME280;65120;59.304;18.294;2022-12-29T02:12:10;100140.72;;;2.65;75.72
76311;BME280;65120;59.304;18.294;2022-12-29T02:14:37;100130.41;;;2.65;76.16
76311;BME280;65120;59.304;18.294;2022-12-29T02:17:12;100130.41;;;2.65;76.28
76311;BME280;65120;59.304;18.294;2022-12-29T02:20:17;100122.69;;;2.65;76.02
76311;BME280;65120;59.304;18.294;2022-12-29T02:23:04;100120.94;;;2.64;75.59
76311;BME280;65120;59.304;18.294;2022-12-29T02:25:58;100123.53;;;2.65;75.70
76311;BME280;65120;59.304;18.294;2022-12-29T02:28:59;100109.78;;;2.65;75.65
76311;BME280;65120;59.304;18.294;2022-12-29T02:31:40;100112.38;;;2.65;76.18
76311;BME280;65120;59.304;18.294;2022-12-29T02:34:18;100102.03;;;2.65;76.14
76311;BME280;65120;59.304;18.294;2022-12-29T02:36:55;100108.91;;;2.64;76.08
76311;BME280;65120;59.304;18.294;2022-12-29T02:39:34;100102.03;;;2.65;75.81
76311;BME280;65120;59.304;18.294;2022-12-29T02:42:09;100096.88;;;2.65;76.31
76311;BME280;65120;59.304;18.294;2022-12-29T02:44:50;100094.31;;;2.65;75.69
76311;BME280;65120;59.304;18.294;2022-12-29T02:47:24;100091.72;;;2.65;76.25
76311;BME280;65120;59.304;18.294;2022-12-29T02:49:59;100086.56;;;2.65;76.54
76311;BME280;65120;59.304;18.294;2022-12-29T02:52:31;100095.16;;;2.67;76.51
76311;BME280;65120;59.304;18.294;2022-12-29T02:55:00;100090.00;;;2.67;76.01
76311;BME280;65120;59.304;18.294;2022-12-29T02:57:31;100085.69;;;2.67;76.52
76311;BME280;65120;59.304;18.294;2022-12-29T03:00:04;100084.84;;;2.68;76.38
76311;BME280;65120;59.304;18.294;2022-12-29T03:05:57;100087.44;;;2.72;76.15
76311;BME280;65120;59.304;18.294;2022-12-29T03:08:34;100081.41;;;2.73;76.55
76311;BME280;65120;59.304;18.294;2022-12-29T03:11:07;100077.09;;;2.73;76.44
76311;BME280;65120;59.304;18.294;2022-12-29T03:13:59;100076.28;;;2.74;76.71
76311;BME280;65120;59.304;18.294;2022-12-29T03:16:48;100078.84;;;2.76;77.41
76311;BME280;65120;59.304;18.294;2022-12-29T03:19:20;100077.16;;;2.79;77.40
76311;BME280;65120;59.304;18.294;2022-12-29T03:21:54;100076.28;;;2.80;77.70
76311;BME280;65120;59.304;18.294;2022-12-29T03:24:41;100079.72;;;2.82;77.71
76311;BME280;65120;59.304;18.294;2022-12-29T03:27:14;100073.72;;;2.85;77.63
76311;BME280;65120;59.304;18.294;2022-12-29T03:29:47;100070.28;;;2.89;77.90
76311;BME280;65120;59.304;18.294;2022-12-29T03:32:22;100060.81;;;2.91;78.02
76311;BME280;65120;59.304;18.294;2022-12-29T03:34:50;100059.09;;;2.95;77.30
76311;BME280;65120;59.304;18.294;2022-12-29T03:37:25;100059.97;;;2.98;78.02
76311;BME280;65120;59.304;18.294;2022-12-29T03:39:52;100054.81;;;3.00;77.80
76311;BME280;65120;59.304;18.294;2022-12-29T03:42:21;100047.06;;;3.03;78.22
76311;BME280;65120;59.304;18.294;2022-12-29T03:44:53;100035.03;;;3.05;78.06
76311;BME280;65120;59.304;18.294;2022-12-29T03:47:20;100033.31;;;3.07;78.03
76311;BME280;65120;59.304;18.294;2022-12-29T03:49:48;100044.50;;;3.10;78.13
76311;BME280;65120;59.304;18.294;2022-12-29T03:52:15;100038.47;;;3.11;77.97
76311;BME280;65120;59.304;18.294;2022-12-29T03:54:44;100050.50;;;3.15;77.83
76311;BME280;65120;59.304;18.294;2022-12-29T03:57:11;100048.81;;;3.16;78.22
76311;BME280;65120;59.304;18.294;2022-12-29T03:59:38;100038.47;;;3.21;77.81
76311;BME280;65120;59.304;18.294;2022-12-29T04:02:05;100037.59;;;3.23;78.15
76311;BME280;65120;59.304;18.294;2022-12-29T04:04:32;100038.47;;;3.25;77.88
76311;BME280;65120;59.304;18.294;2022-12-29T04:06:59;100031.59;;;3.27;78.04
76311;BME280;65120;59.304;18.294;2022-12-29T04:09:26;100022.13;;;3.28;78.29
76311;BME280;65120;59.304;18.294;2022-12-29T04:11:54;100017.81;;;3.30;78.22
76311;BME280;65120;59.304;18.294;2022-12-29T04:14:21;100010.94;;;3.32;78.36
76311;BME280;65120;59.304;18.294;2022-12-29T04:16:48;100011.78;;;3.34;78.19
76311;BME280;65120;59.304;18.294;2022-12-29T04:19:15;100016.09;;;3.36;77.98
76311;BME280;65120;59.304;18.294;2022-12-29T04:21:42;100000.59;;;3.36;78.32
76311;BME280;65120;59.304;18.294;2022-12-29T04:24:08;100000.59;;;3.38;78.22
76311;BME280;65120;59.304;18.294;2022-12-29T04:26:35;99992.84;;;3.40;77.97
76311;BME280;65120;59.304;18.294;2022-12-29T04:29:04;99994.56;;;3.42;78.24
76311;BME280;65120;59.304;18.294;2022-12-29T04:31:30;99983.38;;;3.45;78.46
76311;BME280;65120;59.304;18.294;2022-12-29T04:33:57;99975.63;;;3.45;78.16
76311;BME280;65120;59.304;18.294;2022-12-29T04:36:25;99966.16;;;3.47;78.38
76311;BME280;65120;59.304;18.294;2022-12-29T04:38:52;99961.84;;;3.49;78.24
76311;BME280;65120;59.304;18.294;2022-12-29T04:41:19;99970.47;;;3.51;78.45
76311;BME280;65120;59.304;18.294;2022-12-29T04:43:46;99967.00;;;3.52;78.38
76311;BME280;65120;59.304;18.294;2022-12-29T04:46:14;99959.25;;;3.55;78.88
76311;BME280;65120;59.304;18.294;2022-12-29T04:48:41;99960.09;;;3.55;78.37
76311;BME280;65120;59.304;18.294;2022-12-29T04:51:08;99964.41;;;3.58;78.68
76311;BME280;65120;59.304;18.294;2022-12-29T04:53:35;99962.69;;;3.60;78.61
76311;BME280;65120;59.304;18.294;2022-12-29T04:56:02;99958.38;;;3.62;78.38
76311;BME280;65120;59.304;18.294;2022-12-29T04:58:29;99960.09;;;3.60;78.46
76311;BME280;65120;59.304;18.294;2022-12-29T05:00:56;99966.09;;;3.65;78.38
76311;BME280;65120;59.304;18.294;2022-12-29T05:03:24;99970.41;;;3.68;78.36
76311;BME280;65120;59.304;18.294;2022-12-29T05:05:53;99975.56;;;3.69;78.28
76311;BME280;65120;59.304;18.294;2022-12-29T05:08:20;99960.91;;;3.71;78.63
76311;BME280;65120;59.304;18.294;2022-12-29T05:10:47;99957.47;;;3.72;78.43
76311;BME280;65120;59.304;18.294;2022-12-29T05:13:16;99955.75;;;3.74;78.52
76311;BME280;65120;59.304;18.294;2022-12-29T05:15:47;99944.53;;;3.75;78.38
76311;BME280;65120;59.304;18.294;2022-12-29T05:18:14;99939.38;;;3.77;78.33
76311;BME280;65120;59.304;18.294;2022-12-29T05:20:43;99935.91;;;3.78;78.31
76311;BME280;65120;59.304;18.294;2022-12-29T05:23:10;99938.50;;;3.79;78.35
76311;BME280;65120;59.304;18.294;2022-12-29T05:25:37;99933.31;;;3.81;78.46
76311;BME280;65120;59.304;18.294;2022-12-29T05:28:04;99938.47;;;3.82;78.65
76311;BME280;65120;59.304;18.294;2022-12-29T05:30:30;99941.91;;;3.83;78.44
76311;BME280;65120;59.304;18.294;2022-12-29T05:32:57;99943.63;;;3.84;78.36
76311;BME280;65120;59.304;18.294;2022-12-29T05:35:24;99942.75;;;3.87;78.31
76311;BME280;65120;59.304;18.294;2022-12-29T05:37:52;99947.94;;;3.88;78.39
76311;BME280;65120;59.304;18.294;2022-12-29T05:40:19;99941.88;;;3.89;78.35
76311;BME280;65120;59.304;18.294;2022-12-29T05:42:46;99940.16;;;3.91;78.37
76311;BME280;65120;59.304;18.294;2022-12-29T05:45:13;99941.88;;;3.92;78.45
76311;BME280;65120;59.304;18.294;2022-12-29T05:47:40;99934.13;;;3.92;78.11
76311;BME280;65120;59.304;18.294;2022-12-29T05:50:07;99933.25;;;3.95;78.26
76311;BME280;65120;59.304;18.294;2022-12-29T05:52:34;99932.41;;;3.94;78.57
76311;BME280;65120;59.304;18.294;2022-12-29T05:55:03;99923.75;;;3.95;78.17
76311;BME280;65120;59.304;18.294;2022-12-29T05:57:30;99921.19;;;3.97;78.39
76311;BME280;65120;59.304;18.294;2022-12-29T05:59:57;99925.50;;;3.96;78.03
76311;BME280;65120;59.304;18.294;2022-12-29T06:02:24;99913.44;;;3.97;78.30
76311;BME280;65120;59.304;18.294;2022-12-29T06:04:51;99907.41;;;3.99;78.29
76311;BME280;65120;59.304;18.294;2022-12-29T06:07:18;99912.56;;;3.99;78.46
76311;BME280;65120;59.304;18.294;2022-12-29T06:09:44;99901.38;;;3.97;78.25
76311;BME280;65120;59.304;18.294;2022-12-29T06:12:13;99899.63;;;4.01;78.26
76311;BME280;65120;59.304;18.294;2022-12-29T06:14:40;99896.19;;;4.00;78.24
76311;BME280;65120;59.304;18.294;2022-12-29T06:17:06;99893.59;;;4.02;78.30
76311;BME280;65120;59.304;18.294;2022-12-29T06:19:34;99888.44;;;4.02;78.32
76311;BME280;65120;59.304;18.294;2022-12-29T06:22:01;99890.16;;;4.03;78.09
76311;BME280;65120;59.304;18.294;2022-12-29T06:24:28;99886.69;;;4.04;78.22
76311;BME280;65120;59.304;18.294;2022-12-29T06:26:55;99878.94;;;4.04;78.50
76311;BME280;65120;59.304;18.294;2022-12-29T06:29:23;99875.50;;;4.05;78.39
76311;BME280;65120;59.304;18.294;2022-12-29T06:31:50;99854.88;;;3.94;78.08
76311;BME280;65120;59.304;18.294;2022-12-29T06:34:21;99870.31;;;4.06;78.19
76311;BME280;65120;59.304;18.294;2022-12-29T06:36:48;99863.44;;;4.07;78.40
76311;BME280;65120;59.304;18.294;2022-12-29T06:39:15;99859.97;;;4.08;78.49
76311;BME280;65120;59.304;18.294;2022-12-29T06:41:41;99859.94;;;4.10;78.43
76311;BME280;65120;59.304;18.294;2022-12-29T06:44:08;99853.06;;;4.09;78.64
76311;BME280;65120;59.304;18.294;2022-12-29T06:46:37;99848.75;;;4.09;78.67
76311;BME280;65120;59.304;18.294;2022-12-29T06:49:04;99852.19;;;4.10;78.41
76311;BME280;65120;59.304;18.294;2022-12-29T06:51:30;99844.44;;;4.11;78.42
76311;BME280;65120;59.304;18.294;2022-12-29T06:53:57;99853.88;;;4.12;78.60
76311;BME280;65120;59.304;18.294;2022-12-29T06:56:24;99848.75;;;4.11;78.69
76311;BME280;65120;59.304;18.294;2022-12-29T06:58:51;99857.34;;;4.14;78.92
76311;BME280;65120;59.304;18.294;2022-12-29T07:01:18;99847.91;;;4.09;78.55
76311;BME280;65120;59.304;18.294;2022-12-29T07:03:46;99865.91;;;4.18;78.84
76311;BME280;65120;59.304;18.294;2022-12-29T07:06:13;99861.63;;;4.17;78.50
76311;BME280;65120;59.304;18.294;2022-12-29T07:08:40;99859.91;;;4.17;78.64
76311;BME280;65120;59.304;18.294;2022-12-29T07:11:07;99865.03;;;4.22;78.66
76311;BME280;65120;59.304;18.294;2022-12-29T07:13:34;99852.97;;;4.21;78.92
76311;BME280;65120;59.304;18.294;2022-12-29T07:16:05;99861.56;;;4.23;78.49
76311;BME280;65120;59.304;18.294;2022-12-29T07:18:31;99852.09;;;4.23;78.83
76311;BME280;65120;59.304;18.294;2022-12-29T07:21:00;99844.34;;;4.23;78.82
76311;BME280;65120;59.304;18.294;2022-12-29T07:23:27;99837.44;;;4.24;78.75
76311;BME280;65120;59.304;18.294;2022-12-29T07:25:59;99835.69;;;4.26;78.87
76311;BME280;65120;59.304;18.294;2022-12-29T07:28:26;99827.09;;;4.25;78.47
76311;BME280;65120;59.304;18.294;2022-12-29T07:30:53;99833.97;;;4.28;78.44
76311;BME280;65120;59.304;18.294;2022-12-29T07:33:20;99824.47;;;4.28;78.68
76311;BME280;65120;59.304;18.294;2022-12-29T07:35:46;99828.78;;;4.29;78.79
76311;BME280;65120;59.304;18.294;2022-12-29T07:38:15;99819.28;;;4.32;78.42
76311;BME280;65120;59.304;18.294;2022-12-29T07:40:42;99816.72;;;4.28;78.75
76311;BME280;65120;59.304;18.294;2022-12-29T07:43:09;99814.13;;;4.32;78.76
76311;BME280;65120;59.304;18.294;2022-12-29T07:45:35;99808.94;;;4.32;78.47
76311;BME280;65120;59.304;18.294;2022-12-29T07:48:03;99812.38;;;4.34;78.63
76311;BME280;65120;59.304;18.294;2022-12-29T07:50:31;99804.63;;;4.34;78.69
76311;BME280;65120;59.304;18.294;2022-12-29T07:52:58;99796.88;;;4.34;78.78
76311;BME280;65120;59.304;18.294;2022-12-29T07:55:26;99803.75;;;4.35;78.73
76311;BME280;65120;59.304;18.294;2022-12-29T07:57:53;99793.41;;;4.35;78.71
76311;BME280;65120;59.304;18.294;2022-12-29T08:00:20;99800.31;;;4.36;78.60
76311;BME280;65120;59.304;18.294;2022-12-29T08:02:47;99807.19;;;4.37;78.82
76311;BME280;65120;59.304;18.294;2022-12-29T08:05:14;99795.13;;;4.36;78.72
76311;BME280;65120;59.304;18.294;2022-12-29T08:07:42;99786.53;;;4.34;78.68
76311;BME280;65120;59.304;18.294;2022-12-29T08:10:10;99793.38;;;4.38;78.50
76311;BME280;65120;59.304;18.294;2022-12-29T08:12:39;99788.22;;;4.35;78.56
76311;BME280;65120;59.304;18.294;2022-12-29T08:15:08;99791.63;;;4.40;78.78
76311;BME280;65120;59.304;18.294;2022-12-29T08:17:35;99780.44;;;4.39;79.01
76311;BME280;65120;59.304;18.294;2022-12-29T08:20:03;99769.22;;;4.40;78.90
76311;BME280;65120;59.304;18.294;2022-12-29T08:22:30;99763.19;;;4.41;78.76
76311;BME280;65120;59.304;18.294;2022-12-29T08:24:57;99756.28;;;4.40;78.92
76311;BME280;65120;59.304;18.294;2022-12-29T08:27:25;99751.13;;;4.40;78.73
76311;BME280;65120;59.304;18.294;2022-12-29T08:29:53;99745.94;;;4.40;78.96
76311;BME280;65120;59.304;18.294;2022-12-29T08:32:20;99745.09;;;4.40;78.67
76311;BME280;65120;59.304;18.294;2022-12-29T08:34:47;99747.69;;;4.40;78.76
76311;BME280;65120;59.304;18.294;2022-12-29T08:37:13;99750.28;;;4.40;78.46
76311;BME280;65120;59.304;18.294;2022-12-29T08:39:40;99746.81;;;4.41;78.78
76311;BME280;65120;59.304;18.294;2022-12-29T08:42:07;99745.94;;;4.40;78.69
76311;BME280;65120;59.304;18.294;2022-12-29T08:44:34;99751.13;;;4.40;78.83
76311;BME280;65120;59.304;18.294;2022-12-29T08:47:02;99740.84;;;4.36;78.96
76311;BME280;65120;59.304;18.294;2022-12-29T08:49:29;99743.41;;;4.39;78.60
76311;BME280;65120;59.304;18.294;2022-12-29T08:51:56;99748.53;;;4.42;78.77
76311;BME280;65120;59.304;18.294;2022-12-29T08:54:23;99745.06;;;4.43;78.96
76311;BME280;65120;59.304;18.294;2022-12-29T08:56:50;99743.34;;;4.43;79.09
76311;BME280;65120;59.304;18.294;2022-12-29T08:59:17;99739.00;;;4.45;78.88
76311;BME280;65120;59.304;18.294;2022-12-29T09:01:44;99739.00;;;4.47;79.05
76311;BME280;65120;59.304;18.294;2022-12-29T09:04:12;99732.09;;;4.46;78.97
76311;BME280;65120;59.304;18.294;2022-12-29T09:06:39;99728.63;;;4.48;78.79
76311;BME280;65120;59.304;18.294;2022-12-29T09:09:06;99725.16;;;4.49;78.99
76311;BME280;65120;59.304;18.294;2022-12-29T09:11:32;99724.28;;;4.52;79.10
76311;BME280;65120;59.304;18.294;2022-12-29T09:13:59;99707.91;;;4.51;79.06
76311;BME280;65120;59.304;18.294;2022-12-29T09:16:26;99707.91;;;4.53;78.85
76311;BME280;65120;59.304;18.294;2022-12-29T09:18:53;99707.88;;;4.55;79.13
76311;BME280;65120;59.304;18.294;2022-12-29T09:21:21;99694.09;;;4.54;78.93
76311;BME280;65120;59.304;18.294;2022-12-29T09:23:48;99694.94;;;4.56;79.16
76311;BME280;65120;59.304;18.294;2022-12-29T09:26:15;99686.28;;;4.57;79.04
76311;BME280;65120;59.304;18.294;2022-12-29T09:28:42;99676.84;;;4.56;78.91
76311;BME280;65120;59.304;18.294;2022-12-29T09:31:09;99672.50;;;4.58;78.97
76311;BME280;65120;59.304;18.294;2022-12-29T09:33:36;99677.69;;;4.58;78.77
76311;BME280;65120;59.304;18.294;2022-12-29T09:36:04;99672.47;;;4.60;79.15
76311;BME280;65120;59.304;18.294;2022-12-29T09:38:32;99669.88;;;4.60;79.03
76311;BME280;65120;59.304;18.294;2022-12-29T09:41:05;99664.69;;;4.63;78.94
76311;BME280;65120;59.304;18.294;2022-12-29T09:43:56;99650.84;;;4.64;78.95
76311;BME280;65120;59.304;18.294;2022-12-29T09:46:26;99652.59;;;4.65;78.84
76311;BME280;65120;59.304;18.294;2022-12-29T09:49:09;99642.19;;;4.68;78.59
76311;BME280;65120;59.304;18.294;2022-12-29T09:51:43;99634.44;;;4.68;79.08
76311;BME280;65120;59.304;18.294;2022-12-29T09:54:39;99625.78;;;4.70;79.16
76311;BME280;65120;59.304;18.294;2022-12-29T09:57:14;99624.91;;;4.71;79.41
76311;BME280;65120;59.304;18.294;2022-12-29T09:59:45;99615.41;;;4.73;79.05
76311;BME280;65120;59.304;18.294;2022-12-29T10:02:23;99624.00;;;4.76;79.01
76311;BME280;65120;59.304;18.294;2022-12-29T10:04:53;99615.34;;;4.77;79.22
76311;BME280;65120;59.304;18.294;2022-12-29T10:07:30;99606.69;;;4.79;79.25
76311;BME280;65120;59.304;18.294;2022-12-29T10:10:06;99601.50;;;4.81;79.26
76311;BME280;65120;59.304;18.294;2022-12-29T10:12:57;99598.03;;;4.82;79.20
76311;BME280;65120;59.304;18.294;2022-12-29T10:15:38;99594.56;;;4.83;79.23
76311;BME280;65120;59.304;18.294;2022-12-29T10:18:20;99584.16;;;4.86;79.21
76311;BME280;65120;59.304;18.294;2022-12-29T10:20:53;99591.09;;;4.85;79.21
76311;BME280;65120;59.304;18.294;2022-12-29T10:23:27;99588.44;;;4.88;79.58
76311;BME280;65120;59.304;18.294;2022-12-29T10:25:57;99586.72;;;4.90;79.22
76311;BME280;65120;59.304;18.294;2022-12-29T10:28:38;99578.91;;;4.92;79.35
76311;BME280;65120;59.304;18.294;2022-12-29T10:31:11;99564.31;;;4.86;79.28
76311;BME280;65120;59.304;18.294;2022-12-29T10:33:42;99569.41;;;4.94;79.18
76311;BME280;65120;59.304;18.294;2022-12-29T10:36:14;99567.66;;;4.96;79.21
76311;BME280;65120;59.304;18.294;2022-12-29T10:38:48;99563.31;;;4.98;79.27
76311;BME280;65120;59.304;18.294;2022-12-29T10:41:21;99541.78;;;4.96;79.39
76311;BME280;65120;59.304;18.294;2022-12-29T10:43:52;99552.03;;;5.01;79.26
76311;BME280;65120;59.304;18.294;2022-12-29T10:46:21;99543.41;;;5.02;79.54
76311;BME280;65120;59.304;18.294;2022-12-29T10:48:49;99533.88;;;5.04;79.33
76311;BME280;65120;59.304;18.294;2022-12-29T10:51:21;99528.69;;;5.05;79.36
76311;BME280;65120;59.304;18.294;2022-12-29T10:53:51;99526.06;;;5.07;79.46
76311;BME280;65120;59.304;18.294;2022-12-29T10:56:29;99528.63;;;5.08;79.13
76311;BME280;65120;59.304;18.294;2022-12-29T10:59:05;99513.09;;;5.08;79.48
76311;BME280;65120;59.304;18.294;2022-12-29T11:01:39;99507.06;;;5.08;79.30
76311;BME280;65120;59.304;18.294;2022-12-29T11:04:25;99501.00;;;5.10;79.15
76311;BME280;65120;59.304;18.294;2022-12-29T11:06:57;99497.50;;;5.13;79.28
76311;BME280;65120;59.304;18.294;2022-12-29T11:09:28;99481.94;;;5.14;79.23
76311;BME280;65120;59.304;18.294;2022-12-29T11:11:56;99481.06;;;5.15;79.46
76311;BME280;65120;59.304;18.294;2022-12-29T11:14:27;99479.34;;;5.14;79.51
76311;BME280;65120;59.304;18.294;2022-12-29T11:17:00;99478.47;;;5.15;79.38
76311;BME280;65120;59.304;18.294;2022-12-29T11:19:29;99467.25;;;5.15;79.40
76311;BME280;65120;59.304;18.294;2022-12-29T11:22:12;99467.22;;;5.18;79.23
76311;BME280;65120;59.304;18.294;2022-12-29T11:24:44;99467.13;;;5.23;79.46
76311;BME280;65120;59.304;18.294;2022-12-29T11:27:15;99467.13;;;5.23;79.46
76311;BME280;65120;59.304;18.294;2022-12-29T11:29:44;99467.09;;;5.24;79.43
76311;BME280;65120;59.304;18.294;2022-12-29T11:32:17;99456.72;;;5.26;79.42
76311;BME280;65120;59.304;18.294;2022-12-29T11:34:44;99448.06;;;5.27;79.70
76311;BME280;65120;59.304;18.294;2022-12-29T11:37:13;99459.25;;;5.29;79.30
76311;BME280;65120;59.304;18.294;2022-12-29T11:39:44;99454.91;;;5.29;79.43
76311;BME280;65120;59.304;18.294;2022-12-29T11:42:17;99452.31;;;5.31;79.48
76311;BME280;65120;59.304;18.294;2022-12-29T11:44:46;99446.22;;;5.32;79.38
76311;BME280;65120;59.304;18.294;2022-12-29T11:47:25;99440.19;;;5.33;79.29
76311;BME280;65120;59.304;18.294;2022-12-29T11:49:56;99438.44;;;5.33;79.22
76311;BME280;65120;59.304;18.294;2022-12-29T11:52:24;99426.34;;;5.34;79.19
76311;BME280;65120;59.304;18.294;2022-12-29T11:54:53;99426.41;;;5.32;79.30
76311;BME280;65120;59.304;18.294;2022-12-29T11:57:23;99420.25;;;5.36;79.14
76311;BME280;65120;59.304;18.294;2022-12-29T11:59:51;99411.72;;;5.33;79.43
76311;BME280;65120;59.304;18.294;2022-12-29T12:02:32;99409.00;;;5.39;79.33
76311;BME280;65120;59.304;18.294;2022-12-29T12:05:08;99395.28;;;5.34;79.28
76311;BME280;65120;59.304;18.294;2022-12-29T12:07:40;99393.47;;;5.39;79.38
76311;BME280;65120;59.304;18.294;2022-12-29T12:10:15;99395.16;;;5.41;79.24
76311;BME280;65120;59.304;18.294;2022-12-29T12:12:47;99387.38;;;5.41;79.20
76311;BME280;65120;59.304;18.294;2022-12-29T12:15:19;99387.38;;;5.40;79.42
76311;BME280;65120;59.304;18.294;2022-12-29T12:17:50;99381.31;;;5.43;79.14
76311;BME280;65120;59.304;18.294;2022-12-29T12:20:21;99384.72;;;5.43;79.03
76311;BME280;65120;59.304;18.294;2022-12-29T12:22:54;99355.53;;;5.35;79.09
76311;BME280;65120;59.304;18.294;2022-12-29T12:25:30;99366.59;;;5.45;79.25
76311;BME280;65120;59.304;18.294;2022-12-29T12:28:10;99371.78;;;5.45;79.20
76311;BME280;65120;59.304;18.294;2022-12-29T12:30:47;99359.72;;;5.44;79.22
76311;BME280;65120;59.304;18.294;2022-12-29T12:33:21;99365.69;;;5.47;79.19
76311;BME280;65120;59.304;18.294;2022-12-29T12:35:57;99352.88;;;5.39;79.38
76311;BME280;65120;59.304;18.294;2022-12-29T12:38:32;99359.59;;;5.48;79.15
76311;BME280;65120;59.304;18.294;2022-12-29T12:41:08;99354.44;;;5.48;79.12
76311;BME280;65120;59.304;18.294;2022-12-29T12:43:40;99344.03;;;5.50;79.26
76311;BME280;65120;59.304;18.294;2022-12-29T12:46:31;99344.91;;;5.50;79.06
76311;BME280;65120;59.304;18.294;2022-12-29T12:49:32;99340.59;;;5.49;79.16
76311;BME280;65120;59.304;18.294;2022-12-29T12:52:08;99351.78;;;5.51;79.04
76311;BME280;65120;59.304;18.294;2022-12-29T12:54:53;99321.78;;;5.41;78.89
76311;BME280;65120;59.304;18.294;2022-12-29T12:57:36;99343.13;;;5.52;79.22
76311;BME280;65120;59.304;18.294;2022-12-29T13:00:11;99345.69;;;5.54;79.28
76311;BME280;65120;59.304;18.294;2022-12-29T13:02:51;99337.00;;;5.55;79.02
76311;BME280;65120;59.304;18.294;2022-12-29T13:05:47;99317.25;;;5.51;79.06
76311;BME280;65120;59.304;18.294;2022-12-29T13:11:16;99328.38;;;5.56;79.22
76311;BME280;65120;59.304;18.294;2022-12-29T13:14:11;99319.75;;;5.55;79.19
76311;BME280;65120;59.304;18.294;2022-12-29T13:16:44;99318.84;;;5.58;78.78
76311;BME280;65120;59.304;18.294;2022-12-29T13:19:20;99317.16;;;5.55;79.32
76311;BME280;65120;59.304;18.294;2022-12-29T13:22:00;99317.13;;;5.57;79.27
76311;BME280;65120;59.304;18.294;2022-12-29T13:24:34;99308.50;;;5.56;79.31
76311;BME280;65120;59.304;18.294;2022-12-29T13:27:11;99310.19;;;5.57;79.38